Time;durP1;ratioP1;P1;durP2;ratioP2;P2;SDS_P1;SDS_P2;PMS_P1;PMS_P2;Temp;Humidity;BMP_temperature;BMP_pressure;BME280_temperature;BME280_humidity;BME280_pressure;Samples;Min_cycle;Max_cycle;Signal;HPM_P1;HPM_P2
2024/04/03 00:02:10;;;;;;;5.80;3.13;;;;;;;;;;5049444;28;20386;-79
2024/04/03 00:04:37;;;;;;;5.45;3.30;;;;;;;;;;5049412;28;20776;-79
2024/04/03 00:07:03;;;;;;;4.50;2.97;;;;;;;;;;5030025;28;20512;-79
2024/04/03 00:09:28;;;;;;;6.05;3.15;;;;;;;;;;5046983;28;20116;-79
2024/04/03 00:11:54;;;;;;;4.57;2.97;;;;;;;;;;5049910;28;20052;-79
2024/04/03 00:14:19;;;;;;;5.28;3.10;;;;;;;;;;5035917;28;20031;-78
2024/04/03 00:16:44;;;;;;;5.10;2.72;;;;;;;;;;5044152;28;20045;-79
2024/04/03 00:19:09;;;;;;;7.60;2.80;;;;;;;;;;5046325;28;20087;-78
2024/04/03 00:21:35;;;;;;;4.57;2.67;;;;;;;;;;5048023;28;20386;-79
2024/04/03 00:24:01;;;;;;;5.28;3.10;;;;;;;;;;5034506;28;20023;-78
2024/04/03 00:26:26;;;;;;;6.20;2.83;;;;;;;;;;5047471;28;20060;-79
2024/04/03 00:28:51;;;;;;;4.55;2.70;;;;;;;;;;5045736;28;20029;-78
2024/04/03 00:31:17;;;;;;;3.60;2.30;;;;;;;;;;5047416;28;20052;-79
2024/04/03 00:33:45;;;;;;;7.07;2.67;;;;;;;;;;5041166;28;20030;-78
2024/04/03 00:36:10;;;;;;;6.50;2.80;;;;;;;;;;5030330;28;20463;-79
2024/04/03 00:38:36;;;;;;;5.05;2.53;;;;;;;;;;5049391;28;20039;-76
2024/04/03 00:41:01;;;;;;;4.82;2.60;;;;;;;;;;5047630;28;20558;-77
2024/04/03 00:43:28;;;;;;;3.85;2.10;;;;;;;;;;5046876;28;20079;-76
2024/04/03 00:45:56;;;;;;;5.60;3.35;;;;;;;;;;5045413;28;20029;-76
2024/04/03 00:48:22;;;;;;;4.88;2.90;;;;;;;;;;5044094;28;20025;-76
2024/04/03 00:50:48;;;;;;;5.07;2.92;;;;;;;;;;5032685;28;20028;-76
2024/04/03 00:53:15;;;;;;;6.15;3.28;;;;;;;;;;5045075;28;20033;-76
2024/04/03 00:55:41;;;;;;;4.68;2.90;;;;;;;;;;5047695;28;20059;-76
2024/04/03 00:58:06;;;;;;;5.05;2.92;;;;;;;;;;5048712;28;20029;-76
2024/04/03 01:00:33;;;;;;;4.95;3.00;;;;;;;;;;5047278;28;20078;-77
2024/04/03 01:02:59;;;;;;;5.80;3.20;;;;;;;;;;5046630;28;20035;-76
2024/04/03 01:05:24;;;;;;;4.80;2.90;;;;;;;;;;5049033;28;20045;-76
2024/04/03 01:07:50;;;;;;;6.82;2.90;;;;;;;;;;5048148;28;20043;-76
2024/04/03 01:10:15;;;;;;;6.30;3.10;;;;;;;;;;5047119;28;20029;-76
2024/04/03 01:12:41;;;;;;;9.35;3.35;;;;;;;;;;5049728;28;20111;-76
2024/04/03 01:15:07;;;;;;;6.10;2.90;;;;;;;;;;5046293;28;20021;-76
2024/04/03 01:17:32;;;;;;;6.15;3.13;;;;;;;;;;5030555;28;20386;-77
2024/04/03 01:19:57;;;;;;;6.22;3.00;;;;;;;;;;5045567;28;20025;-76
2024/04/03 01:22:23;;;;;;;5.72;2.65;;;;;;;;;;5048623;28;20047;-76
2024/04/03 01:24:48;;;;;;;5.32;2.60;;;;;;;;;;5047172;28;20098;-76
2024/04/03 01:27:13;;;;;;;4.07;2.40;;;;;;;;;;5049904;28;20032;-76
2024/04/03 01:29:39;;;;;;;6.00;2.63;;;;;;;;;;5042903;28;20037;-76
2024/04/03 01:32:06;;;;;;;5.55;2.42;;;;;;;;;;5038794;28;20032;-76
2024/04/03 01:34:31;;;;;;;5.20;2.17;;;;;;;;;;5042700;28;20025;-76
2024/04/03 01:36:57;;;;;;;5.97;2.67;;;;;;;;;;5045899;28;20104;-76
2024/04/03 01:39:23;;;;;;;6.55;2.45;;;;;;;;;;5034835;28;20025;-76
2024/04/03 01:41:48;;;;;;;4.32;2.05;;;;;;;;;;5049981;28;20025;-76
2024/04/03 01:44:13;;;;;;;4.68;1.95;;;;;;;;;;5050453;28;20393;-76
2024/04/03 01:46:39;;;;;;;4.10;2.00;;;;;;;;;;5049542;28;20087;-76
2024/04/03 01:49:04;;;;;;;5.63;2.20;;;;;;;;;;5053024;28;20021;-76
2024/04/03 01:51:29;;;;;;;4.10;2.08;;;;;;;;;;5046662;28;20036;-76
2024/04/03 01:53:55;;;;;;;4.63;1.88;;;;;;;;;;5048353;28;20124;-76
2024/04/03 01:56:20;;;;;;;4.15;2.10;;;;;;;;;;5051570;28;20021;-76
2024/04/03 01:58:45;;;;;;;4.30;1.77;;;;;;;;;;5051513;28;20453;-76
2024/04/03 02:01:11;;;;;;;5.03;2.03;;;;;;;;;;5051065;28;20533;-76
2024/04/03 02:03:37;;;;;;;4.68;1.83;;;;;;;;;;5049858;28;20441;-76
2024/04/03 02:06:02;;;;;;;4.75;2.10;;;;;;;;;;5047421;28;20110;-77
2024/04/03 02:08:28;;;;;;;5.57;2.15;;;;;;;;;;5048450;28;20041;-76
2024/04/03 02:10:53;;;;;;;4.03;2.05;;;;;;;;;;5046668;28;20075;-76
2024/04/03 02:13:18;;;;;;;3.63;1.75;;;;;;;;;;5046864;28;20397;-76
2024/04/03 02:15:54;;;;;;;5.80;1.98;;;;;;;;;;5049606;28;20032;-76
2024/04/03 02:18:19;;;;;;;6.38;2.13;;;;;;;;;;5067399;28;20029;-76
2024/04/03 02:20:46;;;;;;;3.25;1.88;;;;;;;;;;5034610;28;20025;-76
2024/04/03 02:23:13;;;;;;;3.67;1.70;;;;;;;;;;5051704;28;20508;-76
2024/04/03 02:25:39;;;;;;;6.03;1.85;;;;;;;;;;5049236;28;20028;-76
2024/04/03 02:28:05;;;;;;;4.07;1.73;;;;;;;;;;5028519;28;20055;-76
2024/04/03 02:30:30;;;;;;;3.17;1.90;;;;;;;;;;5032561;28;20053;-76
2024/04/03 02:32:55;;;;;;;5.53;1.85;;;;;;;;;;5033333;28;20028;-76
2024/04/03 02:35:21;;;;;;;5.43;1.80;;;;;;;;;;5050962;28;20024;-76
2024/04/03 02:37:46;;;;;;;4.85;1.70;;;;;;;;;;5050044;28;20482;-77
2024/04/03 02:40:11;;;;;;;4.57;1.58;;;;;;;;;;5053387;28;20087;-76
2024/04/03 02:42:37;;;;;;;6.00;1.88;;;;;;;;;;5034462;28;20024;-76
2024/04/03 02:45:02;;;;;;;4.18;1.63;;;;;;;;;;5044838;28;20036;-76
2024/04/03 02:47:28;;;;;;;4.05;1.60;;;;;;;;;;5050581;28;20542;-76
2024/04/03 02:49:53;;;;;;;4.78;1.60;;;;;;;;;;5051285;28;20434;-76
2024/04/03 02:52:18;;;;;;;3.13;1.60;;;;;;;;;;5050314;28;21479;-76
2024/04/03 02:54:44;;;;;;;4.43;1.50;;;;;;;;;;5050786;28;20028;-76
2024/04/03 02:57:09;;;;;;;4.20;1.67;;;;;;;;;;5047400;28;20032;-76
2024/04/03 02:59:35;;;;;;;5.35;1.65;;;;;;;;;;5045662;28;20395;-76
2024/04/03 03:02:01;;;;;;;4.93;1.65;;;;;;;;;;5051859;28;20017;-76
2024/04/03 03:04:26;;;;;;;3.50;1.52;;;;;;;;;;5047539;28;20087;-76
2024/04/03 03:06:52;;;;;;;4.32;1.70;;;;;;;;;;5052061;28;20436;-78
2024/04/03 03:09:20;;;;;;;4.00;1.70;;;;;;;;;;5046304;28;20436;-78
2024/04/03 03:11:46;;;;;;;5.50;2.10;;;;;;;;;;5050662;28;20032;-78
2024/04/03 03:14:11;;;;;;;4.80;1.70;;;;;;;;;;5051522;28;20028;-77
2024/04/03 03:16:36;;;;;;;6.60;2.38;;;;;;;;;;5034782;28;20024;-78
2024/04/03 03:19:02;;;;;;;4.88;1.77;;;;;;;;;;5049556;28;21137;-78
2024/04/03 03:21:27;;;;;;;6.03;1.73;;;;;;;;;;5050383;28;20028;-78
2024/04/03 03:23:52;;;;;;;3.72;1.73;;;;;;;;;;5047986;28;20025;-78
2024/04/03 03:26:18;;;;;;;4.68;1.77;;;;;;;;;;5046637;28;20115;-78
2024/04/03 03:28:43;;;;;;;4.35;1.73;;;;;;;;;;5043539;28;20475;-78
2024/04/03 03:31:08;;;;;;;10.75;2.50;;;;;;;;;;5047379;28;20027;-78
2024/04/03 03:33:35;;;;;;;5.57;2.00;;;;;;;;;;5048354;28;20111;-78
2024/04/03 03:36:01;;;;;;;3.65;1.90;;;;;;;;;;5046789;28;20067;-78
2024/04/03 03:38:26;;;;;;;7.57;2.25;;;;;;;;;;5050933;28;20024;-78
2024/04/03 03:40:51;;;;;;;6.05;2.13;;;;;;;;;;5049636;28;20431;-78
2024/04/03 03:43:17;;;;;;;5.90;1.85;;;;;;;;;;5049516;28;20398;-78
2024/04/03 03:45:44;;;;;;;5.40;1.80;;;;;;;;;;5047384;28;20091;-78
2024/04/03 03:48:10;;;;;;;3.33;1.52;;;;;;;;;;5032040;28;20029;-79
2024/04/03 03:53:19;;;;;;;6.47;1.70;;;;;;;;;;5051570;28;20516;-78
2024/04/03 03:55:44;;;;;;;5.28;1.63;;;;;;;;;;5051484;28;20033;-78
2024/04/03 03:58:09;;;;;;;3.80;1.70;;;;;;;;;;5051363;28;20036;-78
2024/04/03 04:00:35;;;;;;;9.40;2.38;;;;;;;;;;5048107;28;20029;-78
2024/04/03 04:03:00;;;;;;;4.88;1.70;;;;;;;;;;5034611;28;20029;-78
2024/04/03 04:05:26;;;;;;;5.32;1.52;;;;;;;;;;5048599;28;20433;-78
2024/04/03 04:07:51;;;;;;;4.43;1.50;;;;;;;;;;5050199;28;20036;-79
2024/04/03 04:10:16;;;;;;;4.07;1.42;;;;;;;;;;5031304;28;20475;-78
2024/04/03 04:12:42;;;;;;;4.05;1.35;;;;;;;;;;5051140;28;20521;-78
2024/04/03 04:15:08;;;;;;;4.07;1.67;;;;;;;;;;5046934;28;20024;-78
2024/04/03 04:17:34;;;;;;;4.57;1.45;;;;;;;;;;5050655;28;20028;-76
2024/04/03 04:19:59;;;;;;;5.78;1.65;;;;;;;;;;5045328;28;20045;-76
2024/04/03 04:22:24;;;;;;;5.53;1.50;;;;;;;;;;5049293;28;20021;-77
2024/04/03 04:24:50;;;;;;;4.13;1.40;;;;;;;;;;5032949;28;20036;-76
2024/04/03 04:27:16;;;;;;;5.38;1.52;;;;;;;;;;5051057;28;20483;-76
2024/04/03 04:29:41;;;;;;;5.10;1.48;;;;;;;;;;5050253;28;20021;-76
2024/04/03 04:32:10;;;;;;;4.45;1.80;;;;;;;;;;5050097;28;20414;-76
2024/04/03 04:34:39;;;;;;;3.75;1.40;;;;;;;;;;5050397;28;20082;-76
2024/04/03 04:37:05;;;;;;;4.07;1.33;;;;;;;;;;5047757;28;20040;-76
2024/04/03 04:39:30;;;;;;;4.47;1.75;;;;;;;;;;5046561;28;20017;-76
2024/04/03 04:41:56;;;;;;;5.15;1.48;;;;;;;;;;5049755;28;20028;-76
2024/04/03 04:44:22;;;;;;;5.90;1.50;;;;;;;;;;5045760;28;20025;-76
2024/04/03 04:46:49;;;;;;;3.67;1.30;;;;;;;;;;5048481;28;20029;-76
2024/04/03 04:49:19;;;;;;;4.65;1.63;;;;;;;;;;5049352;28;20036;-76
2024/04/03 04:51:45;;;;;;;3.72;1.30;;;;;;;;;;5050617;28;20096;-76
2024/04/03 04:54:15;;;;;;;4.32;1.50;;;;;;;;;;5045413;28;20032;-76
2024/04/03 04:56:41;;;;;;;5.18;1.75;;;;;;;;;;5024396;28;20028;-76
2024/04/03 04:59:08;;;;;;;4.45;1.58;;;;;;;;;;5027006;28;20425;-77
2024/04/03 05:01:33;;;;;;;5.03;1.52;;;;;;;;;;5042233;28;20032;-76
2024/04/03 05:04:00;;;;;;;4.82;1.67;;;;;;;;;;5046388;28;20029;-76
2024/04/03 05:06:25;;;;;;;8.10;1.80;;;;;;;;;;5047239;28;20098;-76
2024/04/03 05:08:50;;;;;;;3.78;1.45;;;;;;;;;;5045078;28;20482;-76
2024/04/03 05:11:16;;;;;;;4.97;1.63;;;;;;;;;;5046347;28;20102;-76
2024/04/03 05:13:41;;;;;;;5.05;1.60;;;;;;;;;;5047084;28;20075;-76
2024/04/03 05:16:08;;;;;;;5.63;1.60;;;;;;;;;;5040784;28;20067;-75
2024/04/03 05:18:35;;;;;;;5.40;1.58;;;;;;;;;;5039570;28;20029;-76
2024/04/03 05:21:00;;;;;;;4.38;1.60;;;;;;;;;;5049507;28;20037;-76
2024/04/03 05:23:26;;;;;;;4.05;1.60;;;;;;;;;;5048496;28;20027;-76
2024/04/03 05:26:02;;;;;;;5.78;1.60;;;;;;;;;;5045531;28;20041;-75
2024/04/03 05:28:31;;;;;;;4.50;1.48;;;;;;;;;;5050677;28;20032;-79
2024/04/03 05:31:11;;;;;;;3.95;1.50;;;;;;;;;;5044864;28;20064;-78
2024/04/03 05:33:38;;;;;;;5.32;1.80;;;;;;;;;;5044700;28;20025;-78
2024/04/03 05:36:05;;;;;;;4.90;1.83;;;;;;;;;;5052456;28;20036;-78
2024/04/03 05:38:31;;;;;;;3.60;1.80;;;;;;;;;;5047793;28;20033;-78
2024/04/03 05:40:57;;;;;;;5.13;1.80;;;;;;;;;;5046660;28;20043;-78
2024/04/03 05:43:23;;;;;;;4.07;1.92;;;;;;;;;;5031954;28;20025;-78
2024/04/03 05:45:50;;;;;;;5.68;1.75;;;;;;;;;;5052366;28;20052;-78
2024/04/03 05:48:16;;;;;;;6.00;2.10;;;;;;;;;;5045996;28;20024;-78
2024/04/03 05:50:41;;;;;;;5.65;2.13;;;;;;;;;;5051542;28;20112;-78
2024/04/03 05:53:07;;;;;;;5.47;2.10;;;;;;;;;;5052176;28;20025;-78
2024/04/03 05:55:32;;;;;;;6.32;1.90;;;;;;;;;;5049278;28;20508;-78
2024/04/03 05:57:58;;;;;;;5.95;2.20;;;;;;;;;;5035575;28;20112;-79
2024/04/03 06:00:24;;;;;;;9.40;2.30;;;;;;;;;;5050075;28;20044;-78
2024/04/03 06:02:49;;;;;;;5.50;1.92;;;;;;;;;;5046573;28;20037;-78
2024/04/03 06:05:16;;;;;;;4.40;1.90;;;;;;;;;;5048668;28;20028;-78
2024/04/03 06:07:42;;;;;;;5.70;2.30;;;;;;;;;;5050375;28;20051;-78
2024/04/03 06:10:08;;;;;;;6.45;2.10;;;;;;;;;;5047859;28;20487;-78
2024/04/03 06:12:34;;;;;;;4.95;2.00;;;;;;;;;;5050979;28;20406;-78
2024/04/03 06:15:00;;;;;;;5.97;2.03;;;;;;;;;;5028242;28;20033;-79
2024/04/03 06:17:25;;;;;;;4.95;1.80;;;;;;;;;;5050039;28;20130;-78
2024/04/03 06:19:50;;;;;;;5.15;2.33;;;;;;;;;;5047291;28;20744;-78
2024/04/03 06:22:16;;;;;;;5.68;2.00;;;;;;;;;;5050893;28;20445;-78
2024/04/03 06:24:42;;;;;;;5.05;1.67;;;;;;;;;;5048485;28;20033;-79
2024/04/03 06:27:08;;;;;;;6.90;2.30;;;;;;;;;;5048387;28;20052;-78
2024/04/03 06:29:33;;;;;;;6.30;2.10;;;;;;;;;;5046108;28;20384;-78
2024/04/03 06:32:00;;;;;;;5.97;2.08;;;;;;;;;;5041663;28;20386;-78
2024/04/03 06:34:25;;;;;;;4.55;2.03;;;;;;;;;;5050069;28;20035;-78
2024/04/03 06:36:50;;;;;;;3.95;1.85;;;;;;;;;;5045355;28;20029;-78
2024/04/03 06:39:16;;;;;;;7.00;2.10;;;;;;;;;;5050879;28;20025;-78
2024/04/03 06:41:41;;;;;;;5.47;1.83;;;;;;;;;;5051821;28;20024;-78
2024/04/03 06:44:06;;;;;;;7.72;2.40;;;;;;;;;;5051571;28;20033;-79
2024/04/03 06:46:32;;;;;;;10.73;2.45;;;;;;;;;;5052729;28;20025;-78
2024/04/03 06:48:57;;;;;;;4.95;1.85;;;;;;;;;;5034986;28;20434;-79
2024/04/03 06:51:22;;;;;;;7.32;2.30;;;;;;;;;;5035755;28;20060;-79
2024/04/03 06:53:51;;;;;;;5.93;1.95;;;;;;;;;;5047746;28;20037;-79
2024/04/03 06:56:16;;;;;;;8.00;2.17;;;;;;;;;;5050549;28;20029;-79
2024/04/03 06:58:43;;;;;;;5.10;2.17;;;;;;;;;;5052408;28;20505;-79
2024/04/03 07:01:11;;;;;;;7.38;2.20;;;;;;;;;;5049413;28;20034;-79
2024/04/03 07:03:36;;;;;;;4.70;2.03;;;;;;;;;;5049210;28;20040;-79
2024/04/03 07:06:02;;;;;;;6.32;2.42;;;;;;;;;;5043985;28;20033;-78
2024/04/03 07:08:27;;;;;;;3.97;2.20;;;;;;;;;;5045881;28;20021;-78
2024/04/03 07:10:53;;;;;;;5.18;2.00;;;;;;;;;;5052562;28;20033;-78
2024/04/03 07:13:20;;;;;;;4.97;1.77;;;;;;;;;;5049676;28;20016;-79
2024/04/03 07:15:47;;;;;;;5.35;2.10;;;;;;;;;;5048769;28;20033;-78
2024/04/03 07:18:13;;;;;;;9.02;2.13;;;;;;;;;;5048036;28;20053;-78
2024/04/03 07:20:38;;;;;;;6.40;2.40;;;;;;;;;;5051159;28;20569;-79
2024/04/03 07:23:04;;;;;;;5.80;2.20;;;;;;;;;;5050433;28;20589;-78
2024/04/03 07:25:30;;;;;;;9.30;2.30;;;;;;;;;;5049396;28;20025;-79
2024/04/03 07:27:57;;;;;;;5.72;2.20;;;;;;;;;;5049928;28;20035;-78
2024/04/03 07:30:23;;;;;;;6.47;2.05;;;;;;;;;;5049341;28;20025;-78
2024/04/03 07:32:48;;;;;;;5.60;1.73;;;;;;;;;;5047797;28;20021;-79
2024/04/03 07:35:14;;;;;;;3.67;1.90;;;;;;;;;;5050038;28;20064;-78
2024/04/03 07:37:41;;;;;;;5.85;1.90;;;;;;;;;;5049723;28;20055;-78
2024/04/03 07:40:11;;;;;;;5.28;1.70;;;;;;;;;;5049083;28;20036;-79
2024/04/03 07:42:40;;;;;;;4.88;1.83;;;;;;;;;;5047034;28;20554;-79
2024/04/03 07:45:07;;;;;;;9.90;1.95;;;;;;;;;;5041213;28;20479;-79
2024/04/03 07:47:33;;;;;;;5.72;1.88;;;;;;;;;;5048914;28;20027;-76
2024/04/03 07:50:03;;;;;;;4.40;1.80;;;;;;;;;;5034021;28;20111;-76
2024/04/03 07:52:29;;;;;;;5.45;2.20;;;;;;;;;;5033373;28;20044;-76
2024/04/03 07:54:54;;;;;;;4.68;1.98;;;;;;;;;;5050839;28;20456;-76
2024/04/03 07:57:19;;;;;;;5.65;1.58;;;;;;;;;;5050784;28;20142;-76
2024/04/03 07:59:48;;;;;;;5.25;2.08;;;;;;;;;;5049326;28;20029;-76
2024/04/03 08:02:14;;;;;;;6.18;1.75;;;;;;;;;;5030915;28;20021;-77
2024/04/03 08:04:39;;;;;;;5.00;2.15;;;;;;;;;;5039512;28;20039;-77
2024/04/03 08:07:05;;;;;;;7.15;1.88;;;;;;;;;;5046936;28;20442;-77
2024/04/03 08:09:34;;;;;;;4.93;2.13;;;;;;;;;;5047822;28;20111;-76
2024/04/03 08:12:00;;;;;;;4.95;1.80;;;;;;;;;;5049708;28;20083;-76
2024/04/03 08:14:25;;;;;;;4.32;1.67;;;;;;;;;;5045975;28;20035;-77
2024/04/03 08:16:50;;;;;;;5.15;1.88;;;;;;;;;;5047074;28;20029;-76
2024/04/03 08:19:16;;;;;;;6.03;1.90;;;;;;;;;;5046821;28;20184;-76
2024/04/03 08:21:44;;;;;;;5.25;1.70;;;;;;;;;;5049591;28;20043;-77
2024/04/03 08:24:10;;;;;;;4.72;1.88;;;;;;;;;;5033229;28;20035;-76
2024/04/03 08:26:35;;;;;;;6.13;2.03;;;;;;;;;;5049904;28;20058;-76
2024/04/03 08:29:01;;;;;;;4.78;1.85;;;;;;;;;;5050243;28;20048;-77
2024/04/03 08:31:26;;;;;;;5.90;1.80;;;;;;;;;;5047665;28;20048;-76
2024/04/03 08:33:52;;;;;;;5.03;2.13;;;;;;;;;;5026886;28;20036;-77
2024/04/03 08:36:17;;;;;;;4.28;1.95;;;;;;;;;;5045346;28;20028;-76
2024/04/03 08:38:42;;;;;;;5.55;2.33;;;;;;;;;;5047530;28;20045;-76
2024/04/03 08:41:08;;;;;;;5.07;1.80;;;;;;;;;;5047954;28;20029;-76
2024/04/03 08:43:37;;;;;;;6.07;1.70;;;;;;;;;;5047375;28;20359;-77
2024/04/03 08:46:02;;;;;;;6.22;2.15;;;;;;;;;;5047562;28;20124;-76
2024/04/03 08:48:29;;;;;;;5.45;2.25;;;;;;;;;;5033315;28;20458;-76
2024/04/03 08:50:56;;;;;;;6.03;2.80;;;;;;;;;;5041952;28;20029;-77
2024/04/03 08:53:24;;;;;;;4.90;2.13;;;;;;;;;;5047043;28;20024;-77
2024/04/03 08:55:52;;;;;;;7.00;1.80;;;;;;;;;;5048984;28;20482;-76
2024/04/03 08:58:18;;;;;;;4.88;1.90;;;;;;;;;;5030240;28;20043;-79
2024/04/03 09:00:45;;;;;;;4.10;1.90;;;;;;;;;;5036176;28;20032;-79
2024/04/03 09:03:12;;;;;;;4.43;2.17;;;;;;;;;;5044877;28;20029;-79
2024/04/03 09:05:37;;;;;;;4.32;2.00;;;;;;;;;;5048023;28;20067;-79
2024/04/03 09:08:07;;;;;;;3.95;2.13;;;;;;;;;;5049912;28;20430;-79
2024/04/03 09:10:47;;;;;;;4.75;2.10;;;;;;;;;;5032008;28;21868;-79
2024/04/03 09:13:13;;;;;;;6.28;2.13;;;;;;;;;;5062555;28;20029;-79
2024/04/03 09:15:39;;;;;;;3.10;1.80;;;;;;;;;;5049088;28;20734;-79
2024/04/03 09:18:09;;;;;;;3.55;1.73;;;;;;;;;;5049209;28;20123;-79
2024/04/03 09:20:38;;;;;;;4.68;2.08;;;;;;;;;;5048983;28;20025;-79
2024/04/03 09:23:03;;;;;;;5.28;1.90;;;;;;;;;;5047784;28;20035;-79
2024/04/03 09:25:30;;;;;;;4.70;2.00;;;;;;;;;;5048491;28;20024;-79
2024/04/03 09:28:06;;;;;;;3.67;2.10;;;;;;;;;;5031083;28;20035;-79
2024/04/03 09:30:36;;;;;;;6.43;2.00;;;;;;;;;;5046286;28;20037;-79
2024/04/03 09:33:03;;;;;;;4.22;2.15;;;;;;;;;;5046767;28;20079;-79
2024/04/03 09:35:32;;;;;;;5.90;2.38;;;;;;;;;;5045999;28;20025;-79
2024/04/03 09:37:58;;;;;;;5.47;2.22;;;;;;;;;;5046812;28;20497;-79
2024/04/03 09:40:26;;;;;;;4.85;2.08;;;;;;;;;;5049417;28;20032;-79
2024/04/03 09:42:55;;;;;;;4.93;2.67;;;;;;;;;;5043710;28;20522;-79
2024/04/03 09:45:23;;;;;;;4.63;2.30;;;;;;;;;;5045855;28;20043;-79
2024/04/03 09:47:56;;;;;;;4.78;2.15;;;;;;;;;;5044870;28;20026;-79
2024/04/03 09:50:22;;;;;;;5.43;2.42;;;;;;;;;;5041271;28;20029;-79
2024/04/03 09:52:48;;;;;;;5.07;2.45;;;;;;;;;;5047695;28;20364;-79
2024/04/03 09:55:15;;;;;;;4.10;2.28;;;;;;;;;;5044013;28;20394;-79
2024/04/03 09:57:40;;;;;;;3.22;2.08;;;;;;;;;;5049802;28;20035;-79
2024/04/03 10:00:06;;;;;;;4.97;2.30;;;;;;;;;;5047034;28;20033;-79
2024/04/03 10:02:31;;;;;;;3.55;2.40;;;;;;;;;;5049192;28;20053;-79
2024/04/03 10:04:57;;;;;;;4.60;2.25;;;;;;;;;;5048493;28;20095;-79
2024/04/03 10:07:26;;;;;;;5.57;2.25;;;;;;;;;;5047087;28;20148;-79
2024/04/03 10:09:51;;;;;;;4.93;2.17;;;;;;;;;;5048729;28;20033;-79
2024/04/03 10:12:21;;;;;;;4.32;2.47;;;;;;;;;;5048900;28;20031;-80
2024/04/03 10:14:56;;;;;;;4.10;2.55;;;;;;;;;;5048833;28;20064;-79
2024/04/03 10:17:22;;;;;;;3.35;1.98;;;;;;;;;;5048705;28;20032;-80
2024/04/03 10:19:48;;;;;;;4.60;2.60;;;;;;;;;;5053570;28;20441;-79
2024/04/03 10:22:17;;;;;;;4.05;2.20;;;;;;;;;;5051058;28;20390;-79
2024/04/03 10:24:45;;;;;;;4.60;2.65;;;;;;;;;;5051729;28;20108;-79
2024/04/03 10:27:10;;;;;;;7.90;3.17;;;;;;;;;;5052255;28;20032;-79
2024/04/03 10:29:37;;;;;;;3.88;2.20;;;;;;;;;;5043091;28;20044;-79
2024/04/03 10:32:02;;;;;;;3.65;2.42;;;;;;;;;;5048804;28;20027;-79
2024/04/03 10:34:28;;;;;;;5.20;2.20;;;;;;;;;;5050707;28;20029;-79
2024/04/03 10:36:53;;;;;;;5.00;2.20;;;;;;;;;;5047131;28;20389;-80
2024/04/03 10:39:19;;;;;;;4.10;2.50;;;;;;;;;;5053694;28;20029;-79
2024/04/03 10:41:44;;;;;;;3.95;2.35;;;;;;;;;;5043661;28;20524;-79
2024/04/03 10:44:11;;;;;;;4.13;2.47;;;;;;;;;;5050481;28;20424;-79
2024/04/03 10:46:36;;;;;;;4.35;2.20;;;;;;;;;;5049325;28;20063;-79
2024/04/03 10:49:02;;;;;;;3.95;2.25;;;;;;;;;;5044618;28;20060;-79
2024/04/03 10:51:28;;;;;;;3.33;2.22;;;;;;;;;;5048891;28;20489;-79
2024/04/03 10:53:55;;;;;;;3.42;2.15;;;;;;;;;;5054028;28;20056;-79
2024/04/03 10:56:24;;;;;;;4.80;2.15;;;;;;;;;;5044248;28;20484;-79
2024/04/03 10:58:49;;;;;;;4.10;2.17;;;;;;;;;;5050472;28;20036;-79
2024/04/03 11:01:15;;;;;;;3.05;1.90;;;;;;;;;;5050216;28;20023;-79
2024/04/03 11:03:42;;;;;;;3.28;2.10;;;;;;;;;;5054070;28;20106;-79
2024/04/03 11:06:09;;;;;;;3.60;2.20;;;;;;;;;;5051322;28;20036;-78
2024/04/03 11:08:35;;;;;;;3.70;1.92;;;;;;;;;;5048485;28;20045;-78
2024/04/03 11:11:10;;;;;;;2.75;1.90;;;;;;;;;;5042058;28;20067;-77
2024/04/03 11:13:36;;;;;;;3.92;1.92;;;;;;;;;;5043351;28;20047;-78
2024/04/03 11:16:06;;;;;;;3.95;1.80;;;;;;;;;;5044091;28;20029;-78
2024/04/03 11:18:32;;;;;;;5.22;2.30;;;;;;;;;;5049546;28;20060;-78
2024/04/03 11:20:57;;;;;;;3.47;2.08;;;;;;;;;;5047178;28;20056;-78
2024/04/03 11:23:23;;;;;;;2.83;2.05;;;;;;;;;;5051137;28;20378;-78
2024/04/03 11:25:48;;;;;;;3.03;2.00;;;;;;;;;;5044381;28;20418;-78
2024/04/03 11:28:13;;;;;;;3.10;2.00;;;;;;;;;;5047410;28;20107;-76
2024/04/03 11:30:40;;;;;;;3.50;1.92;;;;;;;;;;5047807;28;20033;-76
2024/04/03 11:33:08;;;;;;;2.88;1.98;;;;;;;;;;5043571;28;20020;-75
2024/04/03 11:35:34;;;;;;;3.13;1.80;;;;;;;;;;5048288;28;20070;-75
2024/04/03 11:38:04;;;;;;;2.28;1.60;;;;;;;;;;5042047;28;20487;-76
2024/04/03 11:40:30;;;;;;;2.38;1.40;;;;;;;;;;5052252;28;20024;-76
2024/04/03 11:42:56;;;;;;;2.90;1.50;;;;;;;;;;5047195;28;20021;-75
2024/04/03 11:45:21;;;;;;;1.77;1.35;;;;;;;;;;5051192;28;20028;-76
2024/04/03 11:47:46;;;;;;;2.45;1.48;;;;;;;;;;5052739;28;20040;-76
2024/04/03 11:50:12;;;;;;;1.85;1.40;;;;;;;;;;5044877;28;20060;-75
2024/04/03 11:52:37;;;;;;;2.13;1.40;;;;;;;;;;5034831;28;20395;-76
2024/04/03 11:55:03;;;;;;;2.67;1.30;;;;;;;;;;5034233;28;20094;-76
2024/04/03 11:57:28;;;;;;;2.05;1.33;;;;;;;;;;5052912;28;20060;-76
2024/04/03 11:59:55;;;;;;;4.35;1.70;;;;;;;;;;5050671;28;20062;-75
2024/04/03 12:02:21;;;;;;;1.80;1.30;;;;;;;;;;5051414;28;20029;-76
2024/04/03 12:04:46;;;;;;;2.53;1.50;;;;;;;;;;5046332;28;20031;-76
2024/04/03 12:07:12;;;;;;;2.78;1.40;;;;;;;;;;5040363;28;20037;-76
2024/04/03 12:09:38;;;;;;;2.05;1.50;;;;;;;;;;5048125;28;20040;-75
2024/04/03 12:12:05;;;;;;;2.78;1.33;;;;;;;;;;5049350;28;20053;-76
2024/04/03 12:14:31;;;;;;;2.20;1.55;;;;;;;;;;5050891;28;20502;-76
2024/04/03 12:16:59;;;;;;;2.72;1.60;;;;;;;;;;5044465;28;20059;-76
2024/04/03 12:20:07;;;;;;;1.70;1.40;;;;;;;;;;5050927;28;20557;-76
2024/04/03 12:22:16;;;;;;;2.20;1.52;;;;;;;;;;5036945;28;20036;-76
2024/04/03 12:24:42;;;;;;;2.05;1.55;;;;;;;;;;5039258;28;20032;-76
2024/04/03 12:27:07;;;;;;;2.78;1.60;;;;;;;;;;5047423;28;20390;-76
2024/04/03 12:29:32;;;;;;;2.15;1.50;;;;;;;;;;5046312;28;20048;-76
2024/04/03 12:31:59;;;;;;;2.03;1.40;;;;;;;;;;5032008;28;20585;-75
2024/04/03 12:34:24;;;;;;;2.63;1.67;;;;;;;;;;5052035;28;20032;-75
2024/04/03 12:36:50;;;;;;;2.35;1.77;;;;;;;;;;5049756;28;20024;-75
2024/04/03 12:39:15;;;;;;;3.58;1.88;;;;;;;;;;5051254;28;20391;-76
2024/04/03 12:41:40;;;;;;;2.35;1.70;;;;;;;;;;5047525;28;20105;-76
2024/04/03 12:44:06;;;;;;;2.75;2.10;;;;;;;;;;5048383;28;20056;-75
2024/04/03 12:46:31;;;;;;;3.03;2.17;;;;;;;;;;5042736;28;20040;-76
2024/04/03 12:48:56;;;;;;;4.22;2.10;;;;;;;;;;5051125;28;20444;-76
2024/04/03 12:51:22;;;;;;;4.75;2.13;;;;;;;;;;5047370;28;20437;-76
2024/04/03 12:53:48;;;;;;;2.80;2.10;;;;;;;;;;5049122;28;20044;-75
2024/04/03 12:56:13;;;;;;;2.75;2.28;;;;;;;;;;5047807;28;20025;-75
2024/04/03 12:58:39;;;;;;;5.07;2.10;;;;;;;;;;5046424;28;20037;-76
2024/04/03 13:01:05;;;;;;;4.10;2.20;;;;;;;;;;5057275;28;20394;-75
2024/04/03 13:03:32;;;;;;;4.43;2.08;;;;;;;;;;5049294;28;20037;-76
2024/04/03 13:05:57;;;;;;;3.47;2.55;;;;;;;;;;5051030;28;20029;-75
2024/04/03 13:08:22;;;;;;;2.88;2.45;;;;;;;;;;5049766;28;20036;-76
2024/04/03 13:10:48;;;;;;;3.60;2.42;;;;;;;;;;5047732;28;20032;-76
2024/04/03 13:13:13;;;;;;;3.70;2.50;;;;;;;;;;5030523;28;20018;-76
2024/04/03 13:15:38;;;;;;;4.45;2.40;;;;;;;;;;5041836;28;20079;-76
2024/04/03 13:18:04;;;;;;;3.88;2.70;;;;;;;;;;5041841;28;20029;-75
2024/04/03 13:20:32;;;;;;;3.35;2.20;;;;;;;;;;5048952;28;20406;-75
2024/04/03 13:22:58;;;;;;;3.80;2.60;;;;;;;;;;5051264;28;20032;-76
2024/04/03 13:25:27;;;;;;;3.42;2.40;;;;;;;;;;5049830;28;20103;-76
2024/04/03 13:27:53;;;;;;;3.60;2.35;;;;;;;;;;5047557;28;20033;-75
2024/04/03 13:30:19;;;;;;;3.40;2.40;;;;;;;;;;5045417;28;20029;-75
2024/04/03 13:32:45;;;;;;;5.20;2.50;;;;;;;;;;5045758;28;20041;-75
2024/04/03 13:35:11;;;;;;;3.80;2.85;;;;;;;;;;5042537;28;20028;-75
2024/04/03 13:37:37;;;;;;;3.60;2.30;;;;;;;;;;5047661;28;20021;-75
2024/04/03 13:40:03;;;;;;;4.38;2.35;;;;;;;;;;5044657;28;20029;-75
2024/04/03 13:42:29;;;;;;;4.55;2.40;;;;;;;;;;5045590;28;20036;-75
2024/04/03 13:44:54;;;;;;;4.10;2.50;;;;;;;;;;5044925;28;20052;-75
2024/04/03 13:47:20;;;;;;;6.63;2.90;;;;;;;;;;5044164;28;20391;-76
2024/04/03 13:49:45;;;;;;;5.60;2.55;;;;;;;;;;5045838;28;20030;-76
2024/04/03 13:52:14;;;;;;;4.15;2.50;;;;;;;;;;5048118;28;20056;-76
2024/04/03 13:54:40;;;;;;;6.80;2.90;;;;;;;;;;5052709;28;20025;-76
2024/04/03 13:57:05;;;;;;;6.03;2.95;;;;;;;;;;5047843;28;20037;-75
2024/04/03 13:59:32;;;;;;;4.75;2.58;;;;;;;;;;5049134;28;20367;-76
2024/04/03 14:01:57;;;;;;;7.32;2.83;;;;;;;;;;5035313;28;20021;-76
2024/04/03 14:04:22;;;;;;;4.32;2.25;;;;;;;;;;5052998;28;20275;-76
2024/04/03 14:06:48;;;;;;;4.03;2.53;;;;;;;;;;5050122;28;20127;-76
2024/04/03 14:09:16;;;;;;;5.90;3.10;;;;;;;;;;5051899;28;20413;-76
2024/04/03 14:11:42;;;;;;;5.35;2.90;;;;;;;;;;5048399;28;20125;-76
2024/04/03 14:14:07;;;;;;;5.32;2.50;;;;;;;;;;5045050;28;20486;-76
2024/04/03 14:16:32;;;;;;;4.00;2.38;;;;;;;;;;5044619;28;20123;-76
2024/04/03 14:18:58;;;;;;;7.20;2.95;;;;;;;;;;5047681;28;20372;-76
2024/04/03 14:21:23;;;;;;;3.75;2.20;;;;;;;;;;5045459;28;20171;-76
2024/04/03 14:23:49;;;;;;;4.88;2.65;;;;;;;;;;5046056;28;20101;-76
2024/04/03 14:26:14;;;;;;;4.60;2.40;;;;;;;;;;5045870;28;20135;-75
2024/04/03 14:28:41;;;;;;;6.47;2.38;;;;;;;;;;5049171;28;20065;-75
2024/04/03 14:31:06;;;;;;;7.72;2.70;;;;;;;;;;5024524;28;20112;-76
2024/04/03 14:33:32;;;;;;;9.57;2.42;;;;;;;;;;5047162;28;20132;-75
2024/04/03 14:35:59;;;;;;;6.78;2.30;;;;;;;;;;5046377;28;20424;-76
2024/04/03 14:38:24;;;;;;;3.33;2.05;;;;;;;;;;5024474;28;20040;-76
2024/04/03 14:40:49;;;;;;;4.50;2.15;;;;;;;;;;5044083;28;20978;-75